Time;durP1;ratioP1;P1;durP2;ratioP2;P2;SDS_P1;SDS_P2;PMS_P1;PMS_P2;Temp;Humidity;BMP_temperature;BMP_pressure;BME280_temperature;BME280_humidity;BME280_pressure;Samples;Min_cycle;Max_cycle;Signal;HPM_P1;HPM_P2
2024/03/09 00:00:25;;;;;;;36.22;23.95;;;;;;;;;;5034397;28;20072;-57
2024/03/09 00:02:53;;;;;;;36.70;24.00;;;;;;;;;;5049008;28;20052;-59
2024/03/09 00:05:20;;;;;;;35.47;23.70;;;;;;;;;;5048193;28;20056;-59
2024/03/09 00:07:47;;;;;;;35.40;22.23;;;;;;;;;;5051405;28;20053;-59
2024/03/09 00:10:15;;;;;;;37.53;24.85;;;;;;;;;;5051574;28;20410;-59
2024/03/09 00:12:42;;;;;;;39.10;25.58;;;;;;;;;;5042793;28;20495;-59
2024/03/09 00:15:11;;;;;;;36.78;24.20;;;;;;;;;;5049634;28;20052;-58
2024/03/09 00:17:41;;;;;;;38.53;26.60;;;;;;;;;;5049516;28;20045;-58
2024/03/09 00:20:11;;;;;;;;;;;;;;;;;;5050744;28;20533;-55
2024/03/09 00:22:38;;;;;;;35.83;24.17;;;;;;;;;;5045341;28;19936;-57
2024/03/09 00:25:05;;;;;;;36.42;23.83;;;;;;;;;;5052422;28;20056;-58
2024/03/09 00:27:33;;;;;;;35.40;23.63;;;;;;;;;;5052735;28;20397;-59
2024/03/09 00:30:01;;;;;;;36.95;24.30;;;;;;;;;;5042558;28;20406;-59
2024/03/09 00:32:29;;;;;;;37.50;24.15;;;;;;;;;;5044984;28;20358;-59
2024/03/09 00:34:58;;;;;;;33.97;23.85;;;;;;;;;;5037032;28;20060;-59
2024/03/09 00:37:24;;;;;;;34.83;22.77;;;;;;;;;;5035056;28;20057;-59
2024/03/09 00:39:51;;;;;;;37.97;24.70;;;;;;;;;;5035124;28;20057;-59
2024/03/09 00:42:19;;;;;;;37.30;24.15;;;;;;;;;;5034889;28;20053;-59
2024/03/09 00:44:46;;;;;;;38.10;24.38;;;;;;;;;;5045520;28;20053;-58
2024/03/09 00:47:14;;;;;;;36.85;25.10;;;;;;;;;;5048673;28;20045;-59
2024/03/09 00:49:41;;;;;;;33.88;22.58;;;;;;;;;;5040877;28;20053;-59
2024/03/09 00:52:10;;;;;;;35.13;22.90;;;;;;;;;;5051261;28;20512;-59
2024/03/09 00:54:37;;;;;;;30.67;20.98;;;;;;;;;;5050608;28;20060;-59
2024/03/09 00:57:04;;;;;;;32.53;22.88;;;;;;;;;;5047618;28;20056;-59
2024/03/09 00:59:31;;;;;;;33.83;21.75;;;;;;;;;;5047854;28;20068;-59
2024/03/09 01:02:00;;;;;;;34.80;21.63;;;;;;;;;;5051065;28;20056;-60
2024/03/09 01:04:27;;;;;;;34.67;22.98;;;;;;;;;;5050032;28;20045;-60
2024/03/09 01:06:54;;;;;;;31.88;21.83;;;;;;;;;;5050590;28;20055;-59
2024/03/09 01:09:23;;;;;;;35.08;21.92;;;;;;;;;;5054685;28;20056;-59
2024/03/09 01:11:52;;;;;;;34.58;21.90;;;;;;;;;;5053930;28;20064;-59
2024/03/09 01:14:19;;;;;;;34.00;22.33;;;;;;;;;;5047040;28;20053;-60
2024/03/09 01:16:46;;;;;;;36.45;23.92;;;;;;;;;;5052398;28;20406;-59
2024/03/09 01:19:13;;;;;;;32.47;21.60;;;;;;;;;;5054452;28;20060;-59
2024/03/09 01:21:41;;;;;;;32.88;21.08;;;;;;;;;;5054217;28;20053;-59
2024/03/09 01:24:08;;;;;;;30.67;21.27;;;;;;;;;;5051018;28;20058;-60
2024/03/09 01:26:37;;;;;;;33.63;21.75;;;;;;;;;;5052191;28;20482;-59
2024/03/09 01:29:04;;;;;;;32.65;22.02;;;;;;;;;;5049677;28;20060;-59
2024/03/09 01:31:32;;;;;;;33.63;22.13;;;;;;;;;;5048718;28;20052;-59
2024/03/09 01:33:59;;;;;;;33.33;21.13;;;;;;;;;;5054080;28;20049;-59
2024/03/09 01:36:26;;;;;;;35.80;23.13;;;;;;;;;;5054179;28;20049;-59
2024/03/09 01:38:54;;;;;;;35.33;21.27;;;;;;;;;;5054051;28;20052;-59
2024/03/09 01:41:22;;;;;;;32.45;21.70;;;;;;;;;;5050348;28;20045;-58
2024/03/09 01:43:50;;;;;;;35.75;22.65;;;;;;;;;;5045658;28;20063;-57
2024/03/09 01:46:18;;;;;;;37.38;23.98;;;;;;;;;;5050280;28;20060;-58
2024/03/09 01:48:45;;;;;;;40.05;25.88;;;;;;;;;;5052805;28;20053;-59
2024/03/09 01:51:14;;;;;;;35.15;21.63;;;;;;;;;;5047398;28;20052;-58
2024/03/09 01:53:42;;;;;;;34.65;22.50;;;;;;;;;;5053295;28;20057;-58
2024/03/09 01:56:11;;;;;;;33.80;22.00;;;;;;;;;;5053384;28;20053;-58
2024/03/09 01:58:41;;;;;;;33.08;21.52;;;;;;;;;;5051029;28;20068;-58
2024/03/09 02:01:22;;;;;;;31.25;20.02;;;;;;;;;;5032165;28;20057;-58
2024/03/09 02:03:52;;;;;;;34.67;23.00;;;;;;;;;;5032781;28;20078;-59
2024/03/09 02:06:20;;;;;;;35.42;22.83;;;;;;;;;;5033449;28;20387;-59
2024/03/09 02:08:46;;;;;;;35.42;22.48;;;;;;;;;;5035319;28;20435;-59
2024/03/09 02:11:13;;;;;;;33.38;21.45;;;;;;;;;;5046293;28;20049;-58
2024/03/09 02:13:41;;;;;;;34.92;21.73;;;;;;;;;;5053308;28;20053;-57
2024/03/09 02:16:10;;;;;;;32.13;21.30;;;;;;;;;;5050712;28;20055;-59
2024/03/09 02:18:37;;;;;;;31.83;21.90;;;;;;;;;;5047211;28;20045;-59
2024/03/09 02:21:03;;;;;;;30.70;19.58;;;;;;;;;;5050991;28;20065;-59
2024/03/09 02:23:31;;;;;;;29.85;20.10;;;;;;;;;;5050061;28;20422;-59
2024/03/09 02:26:01;;;;;;;31.60;20.65;;;;;;;;;;5042109;28;20049;-58
2024/03/09 02:28:28;;;;;;;31.02;20.00;;;;;;;;;;5041592;28;20045;-59
2024/03/09 02:30:54;;;;;;;30.20;20.48;;;;;;;;;;5053006;28;20060;-58
2024/03/09 02:33:21;;;;;;;28.20;19.90;;;;;;;;;;5052585;28;20059;-58
2024/03/09 02:35:48;;;;;;;29.67;20.70;;;;;;;;;;5052471;28;20075;-58
2024/03/09 02:38:15;;;;;;;30.30;19.25;;;;;;;;;;5051431;28;20049;-58
2024/03/09 02:40:42;;;;;;;31.02;19.20;;;;;;;;;;5049003;28;20044;-58
2024/03/09 02:43:11;;;;;;;28.88;19.52;;;;;;;;;;5052118;28;20078;-58
2024/03/09 02:45:38;;;;;;;32.15;19.42;;;;;;;;;;5032954;28;20407;-59
2024/03/09 02:48:05;;;;;;;30.13;18.75;;;;;;;;;;5033377;28;20053;-59
2024/03/09 02:50:32;;;;;;;26.88;18.33;;;;;;;;;;5046918;28;20053;-58
2024/03/09 02:53:00;;;;;;;26.88;18.60;;;;;;;;;;5049045;28;20125;-59
2024/03/09 02:55:27;;;;;;;28.63;19.05;;;;;;;;;;5052733;28;20064;-59
2024/03/09 02:57:54;;;;;;;27.63;18.42;;;;;;;;;;5052321;28;20053;-58
2024/03/09 03:00:26;;;;;;;26.67;18.40;;;;;;;;;;5047871;28;20057;-58
2024/03/09 03:05:40;;;;;;;25.65;17.02;;;;;;;;;;5049658;28;20049;-59
2024/03/09 03:08:07;;;;;;;30.20;18.55;;;;;;;;;;5044076;28;20490;-57
2024/03/09 03:10:34;;;;;;;27.45;18.23;;;;;;;;;;5044401;28;20049;-58
2024/03/09 03:13:01;;;;;;;28.05;19.02;;;;;;;;;;5052097;28;20056;-59
2024/03/09 03:15:29;;;;;;;27.58;19.05;;;;;;;;;;5049390;28;20498;-58
2024/03/09 03:17:56;;;;;;;26.00;17.80;;;;;;;;;;5052456;28;20049;-59
2024/03/09 03:20:23;;;;;;;30.63;18.60;;;;;;;;;;5052211;28;20447;-59
2024/03/09 03:22:50;;;;;;;28.40;17.60;;;;;;;;;;5052169;28;20057;-58
2024/03/09 03:25:19;;;;;;;25.20;17.08;;;;;;;;;;5048286;28;20052;-58
2024/03/09 03:27:47;;;;;;;24.83;16.83;;;;;;;;;;5046505;28;20053;-58
2024/03/09 03:30:16;;;;;;;25.50;17.83;;;;;;;;;;5051839;28;20045;-58
2024/03/09 03:32:44;;;;;;;25.83;16.30;;;;;;;;;;5052203;28;20064;-58
2024/03/09 03:35:12;;;;;;;22.65;15.63;;;;;;;;;;5052221;28;20052;-59
2024/03/09 03:37:41;;;;;;;23.60;15.57;;;;;;;;;;5048494;28;20065;-58
2024/03/09 03:40:09;;;;;;;23.67;15.82;;;;;;;;;;5049535;28;20051;-58
2024/03/09 03:42:36;;;;;;;23.50;15.00;;;;;;;;;;5041998;28;20504;-58
2024/03/09 03:45:04;;;;;;;25.40;16.00;;;;;;;;;;5051884;28;20049;-59
2024/03/09 03:47:31;;;;;;;21.60;15.00;;;;;;;;;;5051934;28;20056;-58
2024/03/09 03:49:59;;;;;;;22.15;15.40;;;;;;;;;;5050320;28;20053;-58
2024/03/09 03:52:26;;;;;;;22.85;15.50;;;;;;;;;;5032614;28;20053;-59
2024/03/09 03:54:55;;;;;;;24.40;17.02;;;;;;;;;;5035922;28;20054;-59
2024/03/09 03:57:22;;;;;;;24.60;16.52;;;;;;;;;;5039360;28;20056;-57
2024/03/09 03:59:49;;;;;;;23.77;16.88;;;;;;;;;;5049660;28;20049;-59
2024/03/09 04:02:15;;;;;;;23.63;16.65;;;;;;;;;;5050791;28;20064;-59
2024/03/09 04:04:42;;;;;;;22.58;14.30;;;;;;;;;;5055744;28;20478;-58
2024/03/09 04:07:10;;;;;;;22.75;15.13;;;;;;;;;;5054303;28;20487;-59
2024/03/09 04:09:37;;;;;;;20.20;14.77;;;;;;;;;;5049380;28;20072;-58
2024/03/09 04:12:04;;;;;;;22.95;16.02;;;;;;;;;;5036583;28;20057;-58
2024/03/09 04:14:31;;;;;;;23.48;16.13;;;;;;;;;;5054309;28;20518;-59
2024/03/09 04:16:58;;;;;;;21.17;14.75;;;;;;;;;;5055491;28;20052;-59
2024/03/09 04:19:24;;;;;;;22.30;15.18;;;;;;;;;;5054575;28;20049;-59
2024/03/09 04:21:51;;;;;;;20.42;14.90;;;;;;;;;;5051284;28;20052;-59
2024/03/09 04:24:19;;;;;;;20.08;14.35;;;;;;;;;;5048886;28;20053;-59
2024/03/09 04:26:46;;;;;;;21.42;14.73;;;;;;;;;;5046607;28;20049;-59
2024/03/09 04:29:15;;;;;;;21.15;14.30;;;;;;;;;;5034973;28;20046;-58
2024/03/09 04:31:44;;;;;;;22.30;14.63;;;;;;;;;;5035949;28;20140;-58
2024/03/09 04:34:12;;;;;;;21.02;14.05;;;;;;;;;;5052944;28;20044;-58
2024/03/09 04:36:38;;;;;;;22.20;14.98;;;;;;;;;;5041012;28;20049;-57
2024/03/09 04:39:09;;;;;;;20.80;15.10;;;;;;;;;;5052230;28;20044;-58
2024/03/09 04:41:37;;;;;;;22.10;15.15;;;;;;;;;;5053662;28;20056;-58
2024/03/09 04:44:04;;;;;;;23.63;15.60;;;;;;;;;;5055140;28;20061;-59
2024/03/09 04:46:32;;;;;;;25.45;17.70;;;;;;;;;;5055129;28;20129;-59
2024/03/09 04:48:59;;;;;;;20.63;14.70;;;;;;;;;;5055048;28;20048;-59
2024/03/09 04:51:26;;;;;;;25.15;15.80;;;;;;;;;;5053272;28;20048;-59
2024/03/09 04:53:53;;;;;;;22.38;15.70;;;;;;;;;;5054934;28;20507;-60
2024/03/09 04:56:22;;;;;;;20.08;15.13;;;;;;;;;;5050878;28;20079;-59
2024/03/09 04:58:50;;;;;;;21.05;14.85;;;;;;;;;;5052544;28;20049;-59
2024/03/09 05:01:17;;;;;;;23.27;15.70;;;;;;;;;;5050509;28;20501;-59
2024/03/09 05:03:44;;;;;;;19.85;14.18;;;;;;;;;;5048707;28;20049;-59
2024/03/09 05:06:11;;;;;;;21.58;14.63;;;;;;;;;;5054713;28;20060;-59
2024/03/09 05:08:38;;;;;;;22.85;14.65;;;;;;;;;;5051492;28;20041;-59
2024/03/09 05:11:05;;;;;;;21.55;14.55;;;;;;;;;;5046455;28;20159;-59
2024/03/09 05:13:32;;;;;;;21.33;14.90;;;;;;;;;;5048513;28;20045;-59
2024/03/09 05:16:00;;;;;;;23.75;15.07;;;;;;;;;;5049930;28;20053;-58
2024/03/09 05:18:30;;;;;;;23.00;16.20;;;;;;;;;;5052629;28;20045;-58
2024/03/09 05:20:56;;;;;;;25.73;15.68;;;;;;;;;;5054623;28;20056;-59
2024/03/09 05:23:23;;;;;;;22.38;16.05;;;;;;;;;;5054103;28;20057;-58
2024/03/09 05:25:50;;;;;;;21.92;14.25;;;;;;;;;;5052053;28;20056;-59
2024/03/09 05:28:19;;;;;;;18.58;13.40;;;;;;;;;;5053569;28;20398;-59
2024/03/09 05:30:46;;;;;;;19.15;13.55;;;;;;;;;;5054066;28;20410;-59
2024/03/09 05:33:14;;;;;;;22.92;15.73;;;;;;;;;;5053927;28;20053;-59
2024/03/09 05:35:41;;;;;;;22.95;15.27;;;;;;;;;;5052642;28;20067;-59
2024/03/09 05:38:08;;;;;;;22.52;16.20;;;;;;;;;;5051334;28;20041;-58
2024/03/09 05:40:36;;;;;;;21.67;15.98;;;;;;;;;;5050852;28;20045;-58
2024/03/09 05:43:06;;;;;;;22.75;15.93;;;;;;;;;;5045649;28;20056;-59
2024/03/09 05:45:35;;;;;;;28.92;19.98;;;;;;;;;;5051735;28;20080;-58
2024/03/09 05:48:02;;;;;;;24.65;18.23;;;;;;;;;;5053499;28;20057;-59
2024/03/09 05:50:30;;;;;;;24.52;17.83;;;;;;;;;;5053972;28;20474;-59
2024/03/09 05:52:59;;;;;;;24.40;16.20;;;;;;;;;;5052216;28;20053;-59
2024/03/09 05:55:26;;;;;;;19.58;14.02;;;;;;;;;;5049767;28;20045;-59
2024/03/09 05:57:54;;;;;;;19.40;13.75;;;;;;;;;;5045327;28;20044;-59
2024/03/09 06:00:24;;;;;;;18.67;13.10;;;;;;;;;;5050714;28;20482;-59
2024/03/09 06:02:51;;;;;;;19.05;13.38;;;;;;;;;;5053594;28;20079;-58
2024/03/09 06:05:19;;;;;;;21.27;15.02;;;;;;;;;;5049405;28;20057;-58
2024/03/09 06:07:47;;;;;;;21.85;15.18;;;;;;;;;;5051875;28;20494;-59
2024/03/09 06:10:16;;;;;;;21.42;13.75;;;;;;;;;;5052191;28;20059;-59
2024/03/09 06:12:44;;;;;;;21.75;14.10;;;;;;;;;;5053180;28;20060;-58
2024/03/09 06:15:14;;;;;;;23.70;15.68;;;;;;;;;;5052875;28;20057;-59
2024/03/09 06:17:41;;;;;;;23.58;16.05;;;;;;;;;;5052854;28;20053;-59
2024/03/09 06:20:09;;;;;;;22.63;15.35;;;;;;;;;;5045731;28;20072;-58
2024/03/09 06:22:35;;;;;;;22.92;16.20;;;;;;;;;;5034611;28;20517;-59
2024/03/09 06:25:04;;;;;;;22.85;15.45;;;;;;;;;;5033175;28;20053;-58
2024/03/09 06:27:32;;;;;;;21.25;14.95;;;;;;;;;;5033315;28;20053;-58
2024/03/09 06:29:59;;;;;;;21.98;15.20;;;;;;;;;;5059500;28;20060;-58
2024/03/09 06:32:26;;;;;;;22.95;14.25;;;;;;;;;;5047631;28;20502;-56
2024/03/09 06:34:54;;;;;;;18.88;13.73;;;;;;;;;;5051181;28;20053;-58
2024/03/09 06:37:22;;;;;;;21.08;13.68;;;;;;;;;;5055627;28;20045;-59
2024/03/09 06:39:48;;;;;;;18.90;13.95;;;;;;;;;;5058129;28;20529;-58
2024/03/09 06:42:18;;;;;;;19.67;14.23;;;;;;;;;;5046592;28;20057;-58
2024/03/09 06:44:45;;;;;;;;;;;;;;;;;;5052058;28;20076;-58
2024/03/09 06:47:13;;;;;;;21.25;15.40;;;;;;;;;;5052919;28;20358;-58
2024/03/09 06:49:40;;;;;;;18.77;14.00;;;;;;;;;;5052328;28;20056;-58
2024/03/09 06:52:07;;;;;;;21.38;14.85;;;;;;;;;;5048450;28;20049;-58
2024/03/09 06:54:34;;;;;;;19.77;13.10;;;;;;;;;;5046443;28;20117;-59
2024/03/09 06:57:01;;;;;;;20.58;14.07;;;;;;;;;;5050226;28;20478;-59
2024/03/09 06:59:29;;;;;;;22.58;15.88;;;;;;;;;;5052530;28;20509;-59
2024/03/09 07:01:59;;;;;;;22.10;16.60;;;;;;;;;;5044722;28;20144;-59
2024/03/09 07:04:27;;;;;;;22.50;16.45;;;;;;;;;;5046946;28;20049;-59
2024/03/09 07:06:56;;;;;;;22.75;16.67;;;;;;;;;;5056175;28;20053;-59
2024/03/09 07:09:22;;;;;;;22.02;15.82;;;;;;;;;;5059832;28;20398;-59
2024/03/09 07:11:50;;;;;;;21.00;15.25;;;;;;;;;;5061778;28;20057;-58
2024/03/09 07:14:17;;;;;;;20.70;15.05;;;;;;;;;;5050208;28;20516;-58
2024/03/09 07:16:46;;;;;;;22.70;17.02;;;;;;;;;;5057061;28;20478;-59
2024/03/09 07:19:13;;;;;;;26.10;19.48;;;;;;;;;;5057897;28;20053;-59
2024/03/09 07:21:40;;;;;;;19.70;15.15;;;;;;;;;;5050946;28;20045;-59
2024/03/09 07:24:07;;;;;;;23.42;16.48;;;;;;;;;;5064144;28;20060;-59
2024/03/09 07:26:35;;;;;;;21.63;15.07;;;;;;;;;;5055951;28;20056;-58
2024/03/09 07:29:02;;;;;;;24.55;16.70;;;;;;;;;;5075342;28;20053;-58
2024/03/09 07:31:29;;;;;;;23.80;17.23;;;;;;;;;;5057638;28;20052;-59
2024/03/09 07:33:57;;;;;;;24.58;16.52;;;;;;;;;;5070039;28;20486;-58
2024/03/09 07:36:24;;;;;;;23.38;17.67;;;;;;;;;;5053596;28;20049;-58
2024/03/09 07:38:51;;;;;;;23.90;17.92;;;;;;;;;;5049551;28;20387;-58
2024/03/09 07:41:20;;;;;;;24.02;16.45;;;;;;;;;;5051183;28;20049;-58
2024/03/09 07:43:47;;;;;;;20.95;15.38;;;;;;;;;;5059369;28;20410;-58
2024/03/09 07:46:15;;;;;;;20.77;14.10;;;;;;;;;;5052604;28;20059;-58
2024/03/09 07:48:41;;;;;;;19.75;14.23;;;;;;;;;;5057522;28;20061;-58
2024/03/09 07:51:10;;;;;;;18.83;14.98;;;;;;;;;;5038566;28;20052;-58
2024/03/09 07:53:38;;;;;;;20.27;15.25;;;;;;;;;;5051860;28;20128;-58
2024/03/09 07:56:05;;;;;;;21.95;15.43;;;;;;;;;;5046736;28;20064;-56
2024/03/09 07:58:32;;;;;;;19.30;14.52;;;;;;;;;;5048359;28;20056;-58
2024/03/09 08:00:59;;;;;;;18.92;14.85;;;;;;;;;;5053811;28;20411;-58
2024/03/09 08:03:28;;;;;;;19.95;14.98;;;;;;;;;;5054523;28;20464;-57
2024/03/09 08:05:55;;;;;;;21.17;15.38;;;;;;;;;;5054543;28;20053;-58
2024/03/09 08:08:23;;;;;;;18.48;14.70;;;;;;;;;;5055707;28;20076;-58
2024/03/09 08:10:52;;;;;;;19.98;15.38;;;;;;;;;;5054591;28;20057;-62
2024/03/09 08:13:21;;;;;;;20.25;15.10;;;;;;;;;;5055720;28;20064;-58
2024/03/09 08:15:48;;;;;;;20.80;15.00;;;;;;;;;;5055565;28;20052;-59
2024/03/09 08:18:15;;;;;;;19.65;15.45;;;;;;;;;;5055076;28;20053;-59
2024/03/09 08:20:42;;;;;;;19.33;14.88;;;;;;;;;;5055292;28;20044;-59
2024/03/09 08:23:09;;;;;;;19.08;14.27;;;;;;;;;;5055451;28;20057;-59
2024/03/09 08:25:38;;;;;;;21.20;15.38;;;;;;;;;;5055253;28;20057;-59
2024/03/09 08:28:08;;;;;;;19.27;15.02;;;;;;;;;;5054865;28;20465;-59
2024/03/09 08:30:35;;;;;;;18.48;14.38;;;;;;;;;;5055302;28;20060;-59
2024/03/09 08:33:01;;;;;;;19.38;14.27;;;;;;;;;;5054971;28;20049;-58
2024/03/09 08:35:31;;;;;;;19.40;14.98;;;;;;;;;;5055350;28;20049;-58
2024/03/09 08:37:58;;;;;;;22.67;16.00;;;;;;;;;;5054894;28;20060;-58
2024/03/09 08:40:25;;;;;;;21.40;15.73;;;;;;;;;;5054051;28;20060;-58
2024/03/09 08:42:54;;;;;;;23.48;15.32;;;;;;;;;;5054710;28;20057;-58
2024/03/09 08:45:21;;;;;;;23.80;17.50;;;;;;;;;;5054734;28;20474;-58
2024/03/09 08:47:50;;;;;;;20.92;15.43;;;;;;;;;;5054611;28;20379;-59
2024/03/09 08:50:17;;;;;;;21.13;16.07;;;;;;;;;;5054804;28;20056;-57
2024/03/09 08:52:45;;;;;;;20.67;15.90;;;;;;;;;;5054872;28;20063;-59
2024/03/09 08:55:12;;;;;;;22.23;18.15;;;;;;;;;;5054649;28;20052;-58
2024/03/09 08:57:39;;;;;;;18.48;14.68;;;;;;;;;;5054457;28;20057;-59
2024/03/09 09:00:09;;;;;;;19.52;17.40;;;;;;;;;;5054412;28;20076;-58
2024/03/09 09:02:37;;;;;;;;;;;;;;;;;;5054648;28;20075;-58
2024/03/09 09:05:11;;;;;;;15.00;13.32;;;;;;;;;;5054487;28;19920;-58
2024/03/09 09:07:41;;;;;;;16.95;13.85;;;;;;;;;;5054639;28;20057;-58
2024/03/09 09:10:11;;;;;;;16.77;15.05;;;;;;;;;;5054286;28;20049;-58
2024/03/09 09:12:39;;;;;;;14.60;13.13;;;;;;;;;;5054316;28;20471;-58
2024/03/09 09:15:08;;;;;;;14.80;12.75;;;;;;;;;;5054184;28;20395;-58
2024/03/09 09:17:35;;;;;;;13.25;11.95;;;;;;;;;;5054072;28;20151;-58
2024/03/09 09:20:03;;;;;;;13.57;11.70;;;;;;;;;;5054055;28;20364;-58
2024/03/09 09:22:29;;;;;;;13.18;11.88;;;;;;;;;;5054026;28;20556;-58
2024/03/09 09:24:56;;;;;;;14.30;12.77;;;;;;;;;;5054182;28;20053;-59
2024/03/09 09:27:26;;;;;;;13.50;12.20;;;;;;;;;;5053868;28;20053;-59
2024/03/09 09:29:53;;;;;;;12.57;11.30;;;;;;;;;;5053878;28;20495;-59
2024/03/09 09:32:23;;;;;;;12.32;11.18;;;;;;;;;;5054044;28;20057;-58
2024/03/09 09:34:50;;;;;;;13.00;11.70;;;;;;;;;;5053634;28;20052;-59
2024/03/09 09:37:18;;;;;;;12.18;10.77;;;;;;;;;;5054247;28;20076;-59
2024/03/09 09:39:45;;;;;;;12.27;11.17;;;;;;;;;;5054011;28;20100;-59
2024/03/09 09:42:12;;;;;;;10.25;9.30;;;;;;;;;;5053622;28;20080;-59
2024/03/09 09:44:40;;;;;;;11.82;10.57;;;;;;;;;;5053486;28;20391;-59
2024/03/09 09:47:07;;;;;;;10.85;9.75;;;;;;;;;;5054036;28;20057;-59
2024/03/09 09:49:35;;;;;;;11.98;10.75;;;;;;;;;;5053858;28;20075;-58
2024/03/09 09:52:03;;;;;;;11.25;10.15;;;;;;;;;;5052411;28;20411;-58
2024/03/09 09:54:31;;;;;;;11.00;9.98;;;;;;;;;;5053667;28;20056;-58
2024/03/09 09:56:58;;;;;;;10.07;9.07;;;;;;;;;;5053705;28;20100;-59
2024/03/09 09:59:25;;;;;;;11.32;10.20;;;;;;;;;;5053296;28;20057;-59
2024/03/09 10:01:52;;;;;;;10.63;9.70;;;;;;;;;;5053784;28;20052;-59
2024/03/09 10:04:19;;;;;;;9.10;8.30;;;;;;;;;;5053388;28;19924;-59
2024/03/09 10:06:47;;;;;;;9.43;7.55;;;;;;;;;;5053195;28;20056;-59
2024/03/09 10:09:24;;;;;;;8.75;7.95;;;;;;;;;;5053364;28;20053;-58
2024/03/09 10:11:54;;;;;;;8.38;7.60;;;;;;;;;;5052712;28;20076;-60
2024/03/09 10:14:27;;;;;;;8.40;7.70;;;;;;;;;;5053169;28;20059;-59
2024/03/09 10:16:54;;;;;;;7.85;7.15;;;;;;;;;;5053566;28;20057;-59
2024/03/09 10:19:21;;;;;;;8.95;7.95;;;;;;;;;;5053346;28;20510;-58
2024/03/09 10:21:51;;;;;;;7.65;7.00;;;;;;;;;;5053155;28;20490;-57
2024/03/09 10:24:18;;;;;;;7.78;6.85;;;;;;;;;;5053017;28;20059;-57
2024/03/09 10:26:45;;;;;;;7.90;7.10;;;;;;;;;;5053295;28;20049;-58
2024/03/09 10:29:13;;;;;;;7.95;7.25;;;;;;;;;;5052625;28;20059;-58
2024/03/09 10:31:42;;;;;;;8.63;7.72;;;;;;;;;;5052913;28;20052;-60
2024/03/09 10:34:10;;;;;;;8.52;7.72;;;;;;;;;;5052741;28;20057;-58
2024/03/09 10:36:37;;;;;;;8.40;7.60;;;;;;;;;;5053070;28;20053;-58
2024/03/09 10:39:05;;;;;;;9.48;8.57;;;;;;;;;;5052769;28;20053;-59
2024/03/09 10:41:34;;;;;;;8.43;7.55;;;;;;;;;;5052750;28;20052;-59
2024/03/09 10:44:01;;;;;;;9.60;8.70;;;;;;;;;;5052514;28;20060;-59
2024/03/09 10:46:29;;;;;;;9.75;8.90;;;;;;;;;;5052724;28;20136;-58
2024/03/09 10:48:56;;;;;;;10.13;9.18;;;;;;;;;;5052647;28;20060;-59
2024/03/09 10:51:30;;;;;;;9.98;8.98;;;;;;;;;;5052842;28;20407;-59
2024/03/09 10:54:06;;;;;;;8.85;8.05;;;;;;;;;;5052653;28;20053;-59
2024/03/09 10:56:35;;;;;;;9.02;8.23;;;;;;;;;;5053196;28;20466;-58
2024/03/09 10:59:04;;;;;;;9.35;8.55;;;;;;;;;;5052384;28;20057;-59
2024/03/09 11:01:33;;;;;;;8.93;8.13;;;;;;;;;;5052049;28;20053;-58
2024/03/09 11:04:00;;;;;;;;;;;;;;;;;;5053030;28;20049;-58
2024/03/09 11:06:28;;;;;;;9.40;8.50;;;;;;;;;;5052591;28;19920;-59
2024/03/09 11:08:55;;;;;;;;;;;;;;;;;;5052949;28;20622;-59
2024/03/09 11:11:22;;;;;;;9.50;8.70;;;;;;;;;;5051889;28;20271;-59
2024/03/09 11:13:53;;;;;;;9.38;8.52;;;;;;;;;;5052378;28;20053;-59
2024/03/09 11:16:21;;;;;;;8.20;7.50;;;;;;;;;;5052393;28;20061;-58
2024/03/09 11:18:51;;;;;;;7.63;6.90;;;;;;;;;;5052213;28;20067;-60
2024/03/09 11:21:26;;;;;;;8.07;7.38;;;;;;;;;;5052316;28;20049;-59
2024/03/09 11:23:53;;;;;;;7.35;6.65;;;;;;;;;;5051328;28;20059;-59
2024/03/09 11:26:21;;;;;;;8.63;7.85;;;;;;;;;;5052280;28;20064;-59
2024/03/09 11:28:55;;;;;;;7.93;7.20;;;;;;;;;;5052094;28;20419;-60
2024/03/09 11:31:28;;;;;;;7.43;6.72;;;;;;;;;;5052499;28;20053;-59
2024/03/09 11:33:57;;;;;;;5.40;4.90;;;;;;;;;;5052446;28;20069;-59
2024/03/09 11:36:40;;;;;;;6.10;4.78;;;;;;;;;;5052246;28;20406;-56
2024/03/09 11:39:07;;;;;;;5.07;4.60;;;;;;;;;;5052175;28;20418;-58
2024/03/09 11:41:35;;;;;;;5.55;4.50;;;;;;;;;;5052093;28;20064;-58
2024/03/09 11:44:05;;;;;;;4.93;4.53;;;;;;;;;;5052191;28;20482;-58
2024/03/09 11:46:34;;;;;;;6.30;5.70;;;;;;;;;;5052241;28;20478;-57
2024/03/09 11:49:03;;;;;;;6.18;5.63;;;;;;;;;;5051697;28;20049;-58
2024/03/09 11:51:33;;;;;;;5.43;4.82;;;;;;;;;;5051689;28;20056;-59
2024/03/09 11:54:02;;;;;;;6.78;5.50;;;;;;;;;;5052163;28;20056;-59
2024/03/09 11:56:30;;;;;;;6.03;5.38;;;;;;;;;;5052072;28;20064;-59
2024/03/09 11:58:57;;;;;;;5.50;5.00;;;;;;;;;;5052090;28;20079;-60
2024/03/09 12:01:25;;;;;;;5.78;5.28;;;;;;;;;;5052063;28;20060;-58
2024/03/09 12:03:52;;;;;;;6.03;5.53;;;;;;;;;;5051904;28;20052;-58
2024/03/09 12:06:21;;;;;;;6.07;5.53;;;;;;;;;;5052055;28;20053;-59
2024/03/09 12:08:49;;;;;;;5.70;5.00;;;;;;;;;;5051511;28;20060;-59
2024/03/09 12:11:17;;;;;;;;;;;;;;;;;;5051823;28;20053;-58
2024/03/09 12:13:45;;;;;;;;;;;;;;;;;;5052730;28;19920;-59
2024/03/09 12:16:12;;;;;;;6.45;5.85;;;;;;;;;;5055926;28;19920;-60
2024/03/09 12:18:42;;;;;;;5.85;5.35;;;;;;;;;;5055137;28;20053;-59
2024/03/09 12:21:09;;;;;;;6.20;5.60;;;;;;;;;;5055565;28;20056;-59
2024/03/09 12:23:36;;;;;;;5.32;4.90;;;;;;;;;;5055153;28;20410;-59
2024/03/09 12:26:03;;;;;;;5.50;5.00;;;;;;;;;;5055240;28;20056;-59
2024/03/09 12:28:30;;;;;;;5.55;5.00;;;;;;;;;;5055363;28;20437;-60
2024/03/09 12:30:58;;;;;;;5.63;5.13;;;;;;;;;;5055332;28;20055;-60
2024/03/09 12:33:27;;;;;;;5.95;5.20;;;;;;;;;;5055293;28;20056;-59
2024/03/09 12:35:57;;;;;;;6.07;5.53;;;;;;;;;;5055539;28;20060;-59
2024/03/09 12:38:24;;;;;;;5.80;5.30;;;;;;;;;;5054897;28;20053;-58
2024/03/09 12:40:53;;;;;;;5.63;5.13;;;;;;;;;;5055065;28;20052;-59
2024/03/09 12:43:20;;;;;;;6.63;5.40;;;;;;;;;;5054664;28;20509;-58
2024/03/09 12:45:52;;;;;;;5.65;5.15;;;;;;;;;;5054853;28;20067;-59
2024/03/09 12:48:22;;;;;;;5.40;4.90;;;;;;;;;;5055199;28;20509;-58
2024/03/09 12:50:51;;;;;;;5.55;5.05;;;;;;;;;;5054796;28;20056;-59
2024/03/09 12:53:21;;;;;;;5.82;4.78;;;;;;;;;;5054516;28;20053;-59
2024/03/09 12:55:49;;;;;;;4.97;4.53;;;;;;;;;;5054392;28;20060;-58
2024/03/09 12:58:17;;;;;;;5.85;5.25;;;;;;;;;;5054501;28;20060;-58
2024/03/09 13:00:45;;;;;;;5.57;5.07;;;;;;;;;;5054593;28;20152;-58
2024/03/09 13:03:13;;;;;;;;;;;;;;;;;;5054757;28;20049;-58
2024/03/09 13:05:39;;;;;;;5.90;5.07;;;;;;;;;;5054679;28;20016;-59
2024/03/09 13:08:07;;;;;;;8.52;5.22;;;;;;;;;;5054201;28;20053;-59
2024/03/09 13:10:36;;;;;;;4.88;4.38;;;;;;;;;;5053796;28;20064;-60
2024/03/09 13:13:05;;;;;;;4.50;4.10;;;;;;;;;;5054393;28;20406;-60
2024/03/09 13:15:31;;;;;;;4.75;4.25;;;;;;;;;;5054285;28;20092;-59
2024/03/09 13:17:58;;;;;;;4.47;4.07;;;;;;;;;;5054322;28;20060;-59
2024/03/09 13:20:30;;;;;;;5.25;4.40;;;;;;;;;;5054069;28;20057;-59
2024/03/09 13:22:59;;;;;;;4.15;3.50;;;;;;;;;;5054193;28;20051;-59
2024/03/09 13:25:26;;;;;;;4.22;3.83;;;;;;;;;;5053888;28;20048;-58
2024/03/09 13:27:56;;;;;;;5.00;4.03;;;;;;;;;;5054168;28;20351;-59
2024/03/09 13:30:26;;;;;;;4.00;3.50;;;;;;;;;;5054357;28;20061;-59
2024/03/09 13:32:53;;;;;;;5.07;4.30;;;;;;;;;;5053643;28;20060;-59
2024/03/09 13:35:20;;;;;;;4.53;3.90;;;;;;;;;;5053760;28;20057;-59
2024/03/09 13:37:48;;;;;;;4.22;3.83;;;;;;;;;;5053808;28;20056;-59
2024/03/09 13:40:15;;;;;;;3.80;3.33;;;;;;;;;;5053531;28;20072;-59
2024/03/09 13:42:42;;;;;;;5.27;4.13;;;;;;;;;;5053495;28;20041;-59
2024/03/09 13:45:10;;;;;;;5.13;4.15;;;;;;;;;;5053512;28;20049;-60
2024/03/09 13:47:39;;;;;;;4.80;4.40;;;;;;;;;;5053524;28;20063;-59
2024/03/09 13:50:07;;;;;;;5.50;4.25;;;;;;;;;;5053542;28;20049;-59
2024/03/09 13:52:34;;;;;;;4.30;3.80;;;;;;;;;;5053661;28;20049;-60
2024/03/09 13:55:01;;;;;;;4.70;3.83;;;;;;;;;;5053324;28;20056;-59
2024/03/09 13:57:27;;;;;;;4.15;3.60;;;;;;;;;;5053579;28;20383;-60
2024/03/09 13:59:55;;;;;;;4.35;3.72;;;;;;;;;;5053293;28;20690;-59
2024/03/09 14:02:25;;;;;;;3.40;3.10;;;;;;;;;;5053403;28;20406;-59
2024/03/09 14:04:52;;;;;;;4.68;4.13;;;;;;;;;;5053537;28;20053;-58
2024/03/09 14:07:21;;;;;;;4.78;3.22;;;;;;;;;;5053452;28;20053;-60
2024/03/09 14:09:49;;;;;;;4.72;4.03;;;;;;;;;;5052757;28;20053;-59
2024/03/09 14:12:19;;;;;;;5.47;4.18;;;;;;;;;;5053286;28;20060;-59
2024/03/09 14:14:49;;;;;;;7.97;6.40;;;;;;;;;;5053248;28;20059;-59
2024/03/09 14:17:16;;;;;;;4.78;3.70;;;;;;;;;;5053278;28;20048;-59
2024/03/09 14:19:46;;;;;;;4.78;3.47;;;;;;;;;;5052729;28;20057;-59
2024/03/09 14:22:14;;;;;;;8.25;7.45;;;;;;;;;;5053018;28;20048;-59
2024/03/09 14:24:41;;;;;;;11.07;8.60;;;;;;;;;;5053313;28;20053;-58
2024/03/09 14:27:08;;;;;;;10.95;9.40;;;;;;;;;;5052768;28;20057;-60
2024/03/09 14:29:36;;;;;;;10.48;8.93;;;;;;;;;;5052954;28;20080;-57
2024/03/09 14:32:03;;;;;;;10.93;9.80;;;;;;;;;;5052941;28;20075;-59
2024/03/09 14:34:30;;;;;;;9.20;8.30;;;;;;;;;;5052821;28;20057;-59